EZY741 LFBD-LEPA
Flight info
| Callsign | EZY741 |
|---|---|
| Flight time | N/A |
| Altitude | 37000 |
| Route | OBLOC DCT SECHE DCT AGN DCT TOU DCT LOMRA DCT ROCAN DCT IBRAP DCT LUKEV DCT LORES |
| Aircraft | A320/M-SDE2E3FGHIJ1RWXYZ/LB1 |
Departure
| Time | N/A |
|---|---|
| Airport | Bordeaux–Mérignac Airport (LFBD) |
Arrival
| Time | 2026-05-07 22:13 |
|---|---|
| Airport | Palma de Mallorca Airport (LEPA) |
| Time | Latitude | Longitude | Altitude | Speed | Heading |
|---|---|---|---|---|---|
| 2026-05-07 21:18 | 43.97018 | 0.81989 | 31919 ft | 432 kts | 159° |
| 2026-05-07 21:18 | 43.94289 | 0.83748 | 32315 ft | 431 kts | 159° |
| 2026-05-07 21:19 | 43.91633 | 0.85697 | 32683 ft | 434 kts | 151° |
| 2026-05-07 21:19 | 43.89200 | 0.88208 | 33008 ft | 438 kts | 142° |
| 2026-05-07 21:19 | 43.87094 | 0.91202 | 33319 ft | 442 kts | 133° |
| 2026-05-07 21:19 | 43.85303 | 0.94687 | 33631 ft | 446 kts | 127° |
| 2026-05-07 21:20 | 43.83615 | 0.98298 | 33938 ft | 445 kts | 127° |
| 2026-05-07 21:20 | 43.81919 | 1.01901 | 34194 ft | 445 kts | 127° |
| 2026-05-07 21:20 | 43.80221 | 1.05486 | 34421 ft | 445 kts | 128° |
| 2026-05-07 21:20 | 43.78515 | 1.09074 | 34661 ft | 445 kts | 128° |
| 2026-05-07 21:21 | 43.76810 | 1.12650 | 34899 ft | 445 kts | 128° |
| 2026-05-07 21:21 | 43.75107 | 1.16226 | 35115 ft | 445 kts | 128° |
| 2026-05-07 21:21 | 43.73422 | 1.19767 | 35309 ft | 446 kts | 128° |
| 2026-05-07 21:21 | 43.71711 | 1.23367 | 35506 ft | 446 kts | 128° |
| 2026-05-07 21:22 | 43.70003 | 1.26953 | 35715 ft | 446 kts | 128° |
| 2026-05-07 21:22 | 43.68284 | 1.30535 | 35920 ft | 446 kts | 130° |
| 2026-05-07 21:22 | 43.66382 | 1.33905 | 36115 ft | 443 kts | 133° |
| 2026-05-07 21:22 | 43.64445 | 1.37217 | 36319 ft | 443 kts | 133° |
| 2026-05-07 21:23 | 43.62532 | 1.40494 | 36497 ft | 443 kts | 133° |
| 2026-05-07 21:23 | 43.60594 | 1.43819 | 36696 ft | 443 kts | 133° |
| 2026-05-07 21:23 | 43.58652 | 1.47149 | 36895 ft | 443 kts | 133° |
| 2026-05-07 21:23 | 43.56736 | 1.50431 | 36975 ft | 443 kts | 134° |
| 2026-05-07 21:24 | 43.52858 | 1.57040 | 36981 ft | 442 kts | 134° |
| 2026-05-07 21:24 | 43.49000 | 1.63599 | 36979 ft | 442 kts | 134° |
| 2026-05-07 21:25 | 43.45143 | 1.70158 | 36974 ft | 442 kts | 134° |
| 2026-05-07 21:25 | 43.41258 | 1.76737 | 36964 ft | 442 kts | 134° |
| 2026-05-07 21:26 | 43.37239 | 1.83115 | 36967 ft | 435 kts | 144° |
| 2026-05-07 21:26 | 43.33111 | 1.86884 | 36968 ft | 423 kts | 161° |
| 2026-05-07 21:27 | 43.26620 | 1.89046 | 36958 ft | 410 kts | 180° |
| 2026-05-07 21:27 | 43.21845 | 1.89495 | 36956 ft | 410 kts | 180° |
| 2026-05-07 21:28 | 43.16171 | 1.90049 | 36958 ft | 410 kts | 180° |
| 2026-05-07 21:28 | 43.10473 | 1.90597 | 36963 ft | 410 kts | 180° |
| 2026-05-07 21:29 | 43.04821 | 1.91120 | 36955 ft | 409 kts | 181° |
| 2026-05-07 21:29 | 42.99213 | 1.91652 | 36960 ft | 409 kts | 181° |
| 2026-05-07 21:30 | 42.93459 | 1.92200 | 36994 ft | 407 kts | 181° |
| 2026-05-07 21:30 | 42.87840 | 1.92735 | 36994 ft | 406 kts | 181° |
| 2026-05-07 21:31 | 42.82187 | 1.93275 | 36998 ft | 406 kts | 181° |
| 2026-05-07 21:31 | 42.76543 | 1.93800 | 36999 ft | 405 kts | 181° |
| 2026-05-07 21:32 | 42.70950 | 1.94324 | 36992 ft | 405 kts | 181° |
| 2026-05-07 21:32 | 42.65335 | 1.95381 | 36977 ft | 411 kts | 171° |
| 2026-05-07 21:33 | 42.59836 | 1.97376 | 36991 ft | 413 kts | 171° |
| 2026-05-07 21:33 | 42.54270 | 1.99368 | 37010 ft | 412 kts | 171° |
| 2026-05-07 21:34 | 42.48719 | 2.01356 | 37012 ft | 411 kts | 171° |
| 2026-05-07 21:34 | 42.43231 | 2.03329 | 37005 ft | 410 kts | 171° |
| 2026-05-07 21:35 | 42.37722 | 2.05307 | 36986 ft | 408 kts | 171° |
| 2026-05-07 21:35 | 42.32233 | 2.07261 | 36985 ft | 407 kts | 171° |
| 2026-05-07 21:36 | 42.26747 | 2.09204 | 36982 ft | 407 kts | 172° |
| 2026-05-07 21:36 | 42.21264 | 2.11146 | 36980 ft | 406 kts | 171° |
| 2026-05-07 21:37 | 42.15816 | 2.13082 | 36964 ft | 407 kts | 172° |
| 2026-05-07 21:37 | 42.10337 | 2.15025 | 36976 ft | 406 kts | 172° |
| 2026-05-07 21:38 | 42.04858 | 2.16954 | 36976 ft | 406 kts | 172° |
| 2026-05-07 21:38 | 41.99409 | 2.18868 | 36973 ft | 406 kts | 172° |
| 2026-05-07 21:39 | 41.93944 | 2.20785 | 36961 ft | 405 kts | 172° |
| 2026-05-07 21:39 | 41.88509 | 2.22692 | 36971 ft | 405 kts | 172° |
| 2026-05-07 21:40 | 41.83051 | 2.24608 | 36979 ft | 405 kts | 172° |
| 2026-05-07 21:40 | 41.77590 | 2.26517 | 36982 ft | 405 kts | 172° |
| 2026-05-07 21:41 | 41.72133 | 2.28418 | 36983 ft | 404 kts | 172° |
| 2026-05-07 21:41 | 41.66709 | 2.30318 | 36979 ft | 403 kts | 172° |
| 2026-05-07 21:42 | 41.61286 | 2.32209 | 36983 ft | 403 kts | 172° |
| 2026-05-07 21:42 | 41.55857 | 2.34100 | 36982 ft | 402 kts | 172° |
| 2026-05-07 21:43 | 41.50470 | 2.35962 | 36982 ft | 401 kts | 172° |
| 2026-05-07 21:43 | 41.45054 | 2.37835 | 36992 ft | 401 kts | 172° |
| 2026-05-07 21:44 | 41.39688 | 2.39690 | 36991 ft | 400 kts | 172° |
| 2026-05-07 21:44 | 41.34292 | 2.41554 | 36992 ft | 400 kts | 172° |
| 2026-05-07 21:45 | 41.28939 | 2.43404 | 36977 ft | 399 kts | 172° |
| 2026-05-07 21:45 | 41.23548 | 2.45255 | 36977 ft | 399 kts | 172° |
| 2026-05-07 21:46 | 41.18166 | 2.47103 | 36980 ft | 399 kts | 172° |
| 2026-05-07 21:46 | 41.12820 | 2.48933 | 36983 ft | 399 kts | 172° |
| 2026-05-07 21:47 | 41.07433 | 2.50775 | 36967 ft | 399 kts | 172° |
| 2026-05-07 21:47 | 41.02049 | 2.52619 | 36745 ft | 399 kts | 172° |
| 2026-05-07 21:48 | 40.99367 | 2.53536 | 36482 ft | 397 kts | 172° |
| 2026-05-07 21:48 | 40.96690 | 2.54450 | 36229 ft | 396 kts | 172° |
| 2026-05-07 21:48 | 40.94038 | 2.55358 | 35850 ft | 391 kts | 172° |
| 2026-05-07 21:48 | 40.91456 | 2.56247 | 35399 ft | 387 kts | 172° |
| 2026-05-07 21:49 | 40.88862 | 2.57137 | 34944 ft | 383 kts | 172° |
| 2026-05-07 21:49 | 40.86292 | 2.58013 | 34476 ft | 379 kts | 172° |
| 2026-05-07 21:49 | 40.83740 | 2.58880 | 34028 ft | 376 kts | 173° |
| 2026-05-07 21:49 | 40.81209 | 2.59733 | 33531 ft | 372 kts | 173° |
| 2026-05-07 21:50 | 40.78716 | 2.60573 | 33088 ft | 367 kts | 173° |
| 2026-05-07 21:50 | 40.76255 | 2.61406 | 32653 ft | 362 kts | 173° |
| 2026-05-07 21:50 | 40.73859 | 2.62218 | 32232 ft | 358 kts | 173° |
| 2026-05-07 21:50 | 40.71460 | 2.63031 | 31807 ft | 354 kts | 173° |
| 2026-05-07 21:51 | 40.69086 | 2.63837 | 31400 ft | 350 kts | 173° |
| 2026-05-07 21:51 | 40.66740 | 2.64631 | 30977 ft | 346 kts | 173° |
| 2026-05-07 21:51 | 40.64424 | 2.65414 | 30580 ft | 342 kts | 173° |
| 2026-05-07 21:51 | 40.62125 | 2.66186 | 30185 ft | 338 kts | 173° |
| 2026-05-07 21:52 | 40.59849 | 2.66950 | 29762 ft | 335 kts | 173° |
| 2026-05-07 21:52 | 40.57630 | 2.67698 | 29371 ft | 329 kts | 173° |
| 2026-05-07 21:52 | 40.55426 | 2.68444 | 29013 ft | 324 kts | 173° |
| 2026-05-07 21:52 | 40.53256 | 2.69178 | 28661 ft | 320 kts | 173° |
| 2026-05-07 21:53 | 40.51107 | 2.69922 | 28299 ft | 320 kts | 169° |
| 2026-05-07 21:53 | 40.49010 | 2.71001 | 27947 ft | 326 kts | 161° |
| 2026-05-07 21:53 | 40.47004 | 2.72437 | 27569 ft | 328 kts | 159° |
| 2026-05-07 21:53 | 40.45002 | 2.73899 | 27183 ft | 328 kts | 159° |
| 2026-05-07 21:54 | 40.43009 | 2.75346 | 26803 ft | 327 kts | 159° |
| 2026-05-07 21:54 | 40.41048 | 2.76763 | 26433 ft | 325 kts | 159° |
| 2026-05-07 21:54 | 40.39064 | 2.78196 | 26051 ft | 325 kts | 158° |
| 2026-05-07 21:54 | 40.37085 | 2.79629 | 25658 ft | 324 kts | 158° |
| 2026-05-07 21:55 | 40.35113 | 2.81054 | 25260 ft | 323 kts | 158° |
| 2026-05-07 21:55 | 40.33139 | 2.82477 | 24862 ft | 323 kts | 158° |
| 2026-05-07 21:55 | 40.31168 | 2.83898 | 24427 ft | 322 kts | 158° |
| 2026-05-07 21:55 | 40.29202 | 2.85315 | 24021 ft | 322 kts | 158° |
| 2026-05-07 21:56 | 40.27261 | 2.86712 | 23604 ft | 323 kts | 158° |
| 2026-05-07 21:56 | 40.25290 | 2.88132 | 23137 ft | 323 kts | 157° |
| 2026-05-07 21:56 | 40.23320 | 2.89555 | 22704 ft | 322 kts | 157° |
| 2026-05-07 21:56 | 40.21370 | 2.90962 | 22298 ft | 320 kts | 155° |
| 2026-05-07 21:57 | 40.19418 | 2.92364 | 21892 ft | 318 kts | 155° |
| 2026-05-07 21:57 | 40.17483 | 2.93759 | 21478 ft | 317 kts | 154° |
| 2026-05-07 21:57 | 40.15559 | 2.95148 | 21090 ft | 315 kts | 154° |
| 2026-05-07 21:57 | 40.13642 | 2.96531 | 20692 ft | 314 kts | 154° |
| 2026-05-07 21:58 | 40.11727 | 2.97909 | 20299 ft | 313 kts | 154° |
| 2026-05-07 21:58 | 40.09840 | 2.99263 | 19909 ft | 312 kts | 154° |
| 2026-05-07 21:58 | 40.07932 | 3.00615 | 19520 ft | 311 kts | 157° |
| 2026-05-07 21:58 | 40.05909 | 3.01550 | 19116 ft | 307 kts | 169° |
| 2026-05-07 21:59 | 40.03792 | 3.01833 | 18737 ft | 305 kts | 182° |
| 2026-05-07 21:59 | 40.01687 | 3.01511 | 18346 ft | 305 kts | 191° |
| 2026-05-07 21:59 | 39.99696 | 3.00553 | 17908 ft | 306 kts | 207° |
| 2026-05-07 21:59 | 39.97783 | 2.99380 | 17549 ft | 302 kts | 199° |
| 2026-05-07 22:00 | 39.95804 | 2.98488 | 17181 ft | 300 kts | 196° |
| 2026-05-07 22:00 | 39.93810 | 2.97710 | 16812 ft | 299 kts | 195° |
| 2026-05-07 22:00 | 39.91815 | 2.96947 | 16446 ft | 298 kts | 195° |
| 2026-05-07 22:00 | 39.89832 | 2.96160 | 16078 ft | 296 kts | 196° |
| 2026-05-07 22:01 | 39.87869 | 2.95345 | 15724 ft | 297 kts | 197° |
| 2026-05-07 22:01 | 39.85909 | 2.94499 | 15367 ft | 297 kts | 198° |
| 2026-05-07 22:01 | 39.84058 | 2.93303 | 14997 ft | 299 kts | 212° |
| 2026-05-07 22:01 | 39.82472 | 2.91539 | 14641 ft | 302 kts | 226° |
| 2026-05-07 22:02 | 39.81215 | 2.89337 | 14265 ft | 305 kts | 233° |
| 2026-05-07 22:02 | 39.80031 | 2.87054 | 14003 ft | 301 kts | 233° |
| 2026-05-07 22:02 | 39.78882 | 2.84863 | 13886 ft | 294 kts | 234° |
| 2026-05-07 22:02 | 39.77729 | 2.82667 | 13764 ft | 286 kts | 232° |
| 2026-05-07 22:03 | 39.76629 | 2.80575 | 13506 ft | 285 kts | 233° |
| 2026-05-07 22:03 | 39.75507 | 2.78447 | 13220 ft | 283 kts | 233° |
| 2026-05-07 22:03 | 39.74380 | 2.76317 | 12832 ft | 284 kts | 233° |
| 2026-05-07 22:03 | 39.73269 | 2.74221 | 12576 ft | 281 kts | 233° |
| 2026-05-07 22:04 | 39.72163 | 2.72130 | 12265 ft | 280 kts | 232° |
| 2026-05-07 22:04 | 39.71075 | 2.70073 | 11960 ft | 279 kts | 233° |
| 2026-05-07 22:04 | 39.69976 | 2.67986 | 11640 ft | 279 kts | 233° |
| 2026-05-07 22:04 | 39.68883 | 2.65911 | 11342 ft | 278 kts | 233° |
| 2026-05-07 22:05 | 39.67792 | 2.63840 | 11029 ft | 277 kts | 233° |
| 2026-05-07 22:05 | 39.66704 | 2.61778 | 10712 ft | 277 kts | 233° |
| 2026-05-07 22:05 | 39.65616 | 2.59719 | 10407 ft | 276 kts | 233° |
| 2026-05-07 22:05 | 39.64529 | 2.57665 | 10098 ft | 275 kts | 232° |
| 2026-05-07 22:06 | 39.63446 | 2.55618 | 9785 ft | 275 kts | 234° |
| 2026-05-07 22:06 | 39.62368 | 2.53577 | 9462 ft | 274 kts | 234° |
| 2026-05-07 22:06 | 39.61305 | 2.51568 | 9095 ft | 274 kts | 234° |
| 2026-05-07 22:06 | 39.60223 | 2.49532 | 8729 ft | 274 kts | 233° |
| 2026-05-07 22:07 | 39.59142 | 2.47499 | 8389 ft | 274 kts | 234° |
| 2026-05-07 22:07 | 39.58063 | 2.45474 | 8049 ft | 273 kts | 232° |
| 2026-05-07 22:07 | 39.56689 | 2.43854 | 7749 ft | 266 kts | 206° |
| 2026-05-07 22:07 | 39.54902 | 2.43245 | 7108 ft | 271 kts | 176° |
| 2026-05-07 22:08 | 39.53077 | 2.43868 | 6403 ft | 278 kts | 147° |
| 2026-05-07 22:08 | 39.51662 | 2.45610 | 5648 ft | 286 kts | 124° |
| 2026-05-07 22:08 | 39.50507 | 2.47756 | 4869 ft | 296 kts | 123° |
| 2026-05-07 22:08 | 39.49314 | 2.49986 | 4054 ft | 306 kts | 123° |
| 2026-05-07 22:09 | 39.48114 | 2.52234 | 3459 ft | 307 kts | 122° |
| 2026-05-07 22:09 | 39.47312 | 2.54737 | 3038 ft | 297 kts | 95° |
| 2026-05-07 22:09 | 39.47601 | 2.57301 | 2591 ft | 286 kts | 65° |
| 2026-05-07 22:09 | 39.48794 | 2.59181 | 2204 ft | 255 kts | 43° |
| 2026-05-07 22:10 | 39.49883 | 2.60721 | 1905 ft | 208 kts | 59° |
| 2026-05-07 22:10 | 39.50548 | 2.62203 | 1637 ft | 175 kts | 61° |
| 2026-05-07 22:10 | 39.51122 | 2.63461 | 1404 ft | 151 kts | 60° |
| 2026-05-07 22:10 | 39.51630 | 2.64572 | 1190 ft | 138 kts | 60° |
| 2026-05-07 22:11 | 39.52119 | 2.65611 | 991 ft | 135 kts | 60° |
| 2026-05-07 22:11 | 39.52564 | 2.66673 | 751 ft | 135 kts | 63° |
| 2026-05-07 22:11 | 39.53078 | 2.67702 | 592 ft | 137 kts | 49° |
| 2026-05-07 22:11 | 39.53645 | 2.68692 | 578 ft | 138 kts | 57° |
| 2026-05-07 22:12 | 39.54115 | 2.69756 | 323 ft | 139 kts | 65° |
| 2026-05-07 22:12 | 39.54590 | 2.70830 | 108 ft | 135 kts | 57° |
| 2026-05-07 22:12 | 39.55046 | 2.71840 | 28 ft | 113 kts | 53° |
| 2026-05-07 22:12 | 39.55379 | 2.72491 | 28 ft | 63 kts | 59° |
| 2026-05-07 22:13 | 39.55510 | 2.72894 | 32 ft | 42 kts | 88° |
| 2026-05-07 22:13 | 39.55472 | 2.73065 | 32 ft | 11 kts | 168° |
| 2026-05-07 22:13 | 39.55415 | 2.73003 | 31 ft | 9 kts | 212° |
| 2026-05-07 22:13 | 39.55351 | 2.72991 | 31 ft | 10 kts | 180° |
| 2026-05-07 22:14 | 39.55310 | 2.73017 | 31 ft | 10 kts | 146° |
| 2026-05-07 22:14 | 39.55243 | 2.73022 | 30 ft | 11 kts | 226° |
| 2026-05-07 22:14 | 39.55200 | 2.72945 | 30 ft | 10 kts | 234° |
| 2026-05-07 22:14 | 39.55168 | 2.72869 | 31 ft | 9 kts | 243° |
| 2026-05-07 22:15 | 39.55138 | 2.72799 | 30 ft | 9 kts | 240° |
| 2026-05-07 22:15 | 39.55109 | 2.72734 | 30 ft | 8 kts | 239° |
| 2026-05-07 22:15 | 39.55082 | 2.72674 | 30 ft | 7 kts | 239° |
| 2026-05-07 22:15 | 39.55057 | 2.72620 | 30 ft | 7 kts | 239° |
| 2026-05-07 22:16 | 39.55054 | 2.72797 | 32 ft | 0 kts | 147° |
| 2026-05-07 22:16 | 39.54898 | 2.72413 | 29 ft | 0 kts | 150° |